createdAt,value
2022-10-24T00:02:25.391Z,100401.97
2022-10-24T00:05:01.239Z,100406.34
2022-10-24T00:07:34.411Z,100393.38
2022-10-24T00:10:03.502Z,100396.88
2022-10-24T00:12:35.619Z,100393.38
2022-10-24T00:15:15.413Z,100392.56
2022-10-24T00:17:44.057Z,100402.97
2022-10-24T00:22:57.786Z,100399.56
2022-10-24T00:25:24.732Z,100400.38
2022-10-24T00:27:52.051Z,100396.97
2022-10-24T00:30:19.019Z,100396.03
2022-10-24T00:32:57.502Z,100397.75
2022-10-24T00:35:26.556Z,100395.22
2022-10-24T00:37:55.667Z,100391.69
2022-10-24T00:40:40.625Z,100391.75
2022-10-24T00:43:22.754Z,100376.28
2022-10-24T00:46:04.643Z,100378.72
2022-10-24T00:49:04.666Z,100374.34
2022-10-24T00:51:38.621Z,100369.13
2022-10-24T00:54:28.790Z,100370.06
2022-10-24T00:57:21.287Z,100371.75
2022-10-24T01:00:13.374Z,100372.56
2022-10-24T01:02:45.024Z,100367.31
2022-10-24T01:05:23.209Z,100359.50
2022-10-24T01:08:26.557Z,100362.09
2022-10-24T01:12:03.726Z,100357.84
2022-10-24T01:15:13.068Z,100365.72
2022-10-24T01:17:52.510Z,100358.78
2022-10-24T01:21:06.883Z,100367.50
2022-10-24T01:24:14.683Z,100363.25
2022-10-24T01:27:17.477Z,100360.66
2022-10-24T01:29:52.696Z,100348.53
2022-10-24T01:32:49.603Z,100345.88
2022-10-24T01:35:44.042Z,100353.69
2022-10-24T01:38:41.733Z,100353.84
2022-10-24T01:42:03.451Z,100338.19
2022-10-24T01:44:59.703Z,100341.63
2022-10-24T01:48:00.431Z,100334.66
2022-10-24T01:50:39.170Z,100326.88
2022-10-24T01:53:12.264Z,100322.53
2022-10-24T01:55:56.069Z,100326.84
2022-10-24T01:58:23.317Z,100311.25
2022-10-24T02:00:55.044Z,100318.22
2022-10-24T02:03:35.050Z,100308.63
2022-10-24T02:06:47.052Z,100306.91
2022-10-24T02:09:25.459Z,100308.59
2022-10-24T02:11:55.020Z,100302.44
2022-10-24T02:15:03.194Z,100283.63
2022-10-24T02:17:30.371Z,100289.41
2022-10-24T02:20:00.949Z,100295.41
2022-10-24T02:23:01.857Z,100297.94
2022-10-24T02:25:49.757Z,100291.88
2022-10-24T02:29:01.579Z,100306.53
2022-10-24T02:31:38.635Z,100303.94
2022-10-24T02:34:16.499Z,100296.97
2022-10-24T02:36:53.429Z,100297.88
2022-10-24T02:39:30.106Z,100296.19
2022-10-24T02:41:59.962Z,100296.34
2022-10-24T02:44:38.900Z,100290.19
2022-10-24T02:47:27.133Z,100299.78
2022-10-24T02:50:03.252Z,100295.47
2022-10-24T02:52:37.993Z,100291.16
2022-10-24T02:55:10.554Z,100291.16
2022-10-24T02:58:04.821Z,100299.84
2022-10-24T03:00:31.945Z,100280.22
2022-10-24T03:03:07.007Z,100289.53
2022-10-24T03:05:34.148Z,100288.00
2022-10-24T03:08:03.988Z,100290.66
2022-10-24T03:10:35.616Z,100295.69
2022-10-24T03:13:09.903Z,100292.28
2022-10-24T03:15:36.934Z,100301.88
2022-10-24T03:18:03.943Z,100293.38
2022-10-24T03:20:34.026Z,100296.09
2022-10-24T03:23:13.699Z,100299.47
2022-10-24T03:25:45.892Z,100308.19
2022-10-24T03:28:14.817Z,100306.50
2022-10-24T03:30:48.206Z,100308.19
2022-10-24T03:33:29.148Z,100310.03
2022-10-24T03:36:03.253Z,100309.19
2022-10-24T03:38:30.100Z,100308.28
2022-10-24T03:43:50.171Z,100303.19
2022-10-24T03:46:29.318Z,100317.16
2022-10-24T03:48:58.704Z,100311.00
2022-10-24T03:51:41.864Z,100310.09
2022-10-24T03:54:17.557Z,100305.72
2022-10-24T03:56:56.031Z,100307.47
2022-10-24T03:59:27.175Z,100315.25
2022-10-24T04:01:54.124Z,100308.19
2022-10-24T04:04:21.051Z,100309.81
2022-10-24T04:09:45.885Z,100315.88
2022-10-24T04:12:13.042Z,100313.28
2022-10-24T04:14:40.165Z,100310.63
2022-10-24T04:17:09.717Z,100299.34
2022-10-24T04:19:42.906Z,100312.44
2022-10-24T04:24:54.997Z,100307.34
2022-10-24T04:27:28.734Z,100309.03
2022-10-24T04:30:03.586Z,100310.81
2022-10-24T04:32:30.615Z,100305.72
2022-10-24T04:34:57.541Z,100319.63
2022-10-24T04:37:24.465Z,100320.53
2022-10-24T04:39:53.665Z,100317.06
2022-10-24T04:42:21.898Z,100321.44
2022-10-24T04:44:49.035Z,100317.28
2022-10-24T04:47:16.485Z,100323.06
2022-10-24T04:49:43.752Z,100321.63
2022-10-24T04:52:10.602Z,100334.53
2022-10-24T04:54:37.681Z,100336.38
2022-10-24T04:57:04.534Z,100329.44
2022-10-24T04:59:31.339Z,100339.09
2022-10-24T05:01:58.339Z,100335.72
2022-10-24T05:04:25.440Z,100338.31
2022-10-24T05:06:52.429Z,100345.28
2022-10-24T05:09:19.310Z,100338.25
2022-10-24T05:11:46.378Z,100338.44
2022-10-24T05:14:14.260Z,100333.09
2022-10-24T05:16:41.263Z,100334.88
2022-10-24T05:19:08.109Z,100331.69
2022-10-24T05:21:35.145Z,100344.44
2022-10-24T05:24:02.806Z,100335.03
2022-10-24T05:26:29.783Z,100340.13
2022-10-24T05:28:56.841Z,100334.34
2022-10-24T05:31:23.813Z,100345.34
2022-10-24T05:33:50.851Z,100346.13
2022-10-24T05:36:18.325Z,100344.44
2022-10-24T05:38:45.522Z,100332.53
2022-10-24T05:41:12.330Z,100350.63
2022-10-24T05:43:39.272Z,100349.78
2022-10-24T05:46:07.409Z,100356.69
2022-10-24T05:48:34.379Z,100362.75
2022-10-24T05:51:01.363Z,100347.31
2022-10-24T05:53:28.584Z,100348.03
2022-10-24T05:55:55.466Z,100354.94
2022-10-24T05:58:22.578Z,100347.06
2022-10-24T06:00:53.852Z,100360.97
2022-10-24T06:03:21.678Z,100363.53
2022-10-24T06:05:50.391Z,100364.38
2022-10-24T06:08:17.693Z,100362.75
2022-10-24T06:10:49.324Z,100367.00
2022-10-24T06:13:17.404Z,100356.69
2022-10-24T06:15:44.925Z,100360.22
2022-10-24T06:18:12.224Z,100365.31
2022-10-24T06:20:39.225Z,100376.75
2022-10-24T06:23:06.069Z,100368.94
2022-10-24T06:25:32.979Z,100376.69
2022-10-24T06:28:00.485Z,100374.94
2022-10-24T06:30:27.668Z,100378.47
2022-10-24T06:32:54.675Z,100382.97
2022-10-24T06:35:21.601Z,100382.09
2022-10-24T06:37:48.747Z,100384.81
2022-10-24T06:40:18.435Z,100399.34
2022-10-24T06:42:45.762Z,100402.09
2022-10-24T06:45:12.729Z,100397.00
2022-10-24T06:47:39.735Z,100404.91
2022-10-24T06:50:07.139Z,100407.56
2022-10-24T06:52:34.074Z,100406.00
2022-10-24T06:55:00.994Z,100396.66
2022-10-24T06:57:28.063Z,100402.66
2022-10-24T06:59:54.985Z,100410.47
2022-10-24T07:02:21.909Z,100417.38
2022-10-24T07:04:49.031Z,100413.97
2022-10-24T07:07:21.015Z,100413.13
2022-10-24T07:09:54.327Z,100407.16
2022-10-24T07:12:24.883Z,100421.03
2022-10-24T07:14:52.132Z,100414.19
2022-10-24T07:17:20.193Z,100428.06
2022-10-24T07:19:53.605Z,100431.56
2022-10-24T07:22:20.537Z,100434.09
2022-10-24T07:24:55.977Z,100446.34
2022-10-24T07:27:23.455Z,100432.47
2022-10-24T07:29:51.700Z,100442.97
2022-10-24T07:32:19.547Z,100440.28
2022-10-24T07:34:47.881Z,100442.13
2022-10-24T07:37:16.256Z,100449.00
2022-10-24T07:39:44.244Z,100459.31
2022-10-24T07:42:15.853Z,100458.38
2022-10-24T07:44:42.876Z,100451.56
2022-10-24T07:47:10.229Z,100455.78
2022-10-24T07:49:37.703Z,100457.63
2022-10-24T07:52:05.609Z,100448.16
2022-10-24T07:54:36.182Z,100451.44
2022-10-24T07:57:05.054Z,100459.28
2022-10-24T07:59:41.842Z,100464.41
2022-10-24T08:02:14.296Z,100464.41
2022-10-24T08:04:41.730Z,100468.66
2022-10-24T08:07:15.178Z,100472.09
2022-10-24T08:09:45.524Z,100472.91
2022-10-24T08:12:12.700Z,100475.44
2022-10-24T08:14:41.210Z,100467.47
2022-10-24T08:17:08.261Z,100465.72
2022-10-24T08:19:36.153Z,100464.88
2022-10-24T08:22:03.691Z,100455.19
2022-10-24T08:24:30.870Z,100447.22
2022-10-24T08:26:57.824Z,100456.69
2022-10-24T08:29:25.539Z,100456.78
2022-10-24T08:31:55.964Z,100461.75
2022-10-24T08:34:23.524Z,100468.50
2022-10-24T08:36:50.783Z,100461.41
2022-10-24T08:39:18.945Z,100463.06
2022-10-24T08:42:00.177Z,100477.72
2022-10-24T08:44:36.679Z,100474.06
2022-10-24T08:47:18.869Z,100466.25
2022-10-24T08:50:09.691Z,100473.94
2022-10-24T08:52:46.722Z,100466.19
2022-10-24T08:55:50.740Z,100482.47
2022-10-24T08:58:15.186Z,100483.19
2022-10-24T09:00:45.356Z,100486.69
2022-10-24T09:03:26.584Z,100495.97
2022-10-24T09:06:11.107Z,100490.72
2022-10-24T09:08:40.963Z,100486.22
2022-10-24T09:11:08.008Z,100497.38
2022-10-24T09:13:37.938Z,100487.78
2022-10-24T09:16:05.097Z,100474.69
2022-10-24T09:18:37.995Z,100477.97
2022-10-24T09:21:13.322Z,100487.41
2022-10-24T09:23:43.103Z,100482.88
2022-10-24T09:26:29.073Z,100488.16
2022-10-24T09:28:57.167Z,100497.47
2022-10-24T09:31:27.169Z,100498.34
2022-10-24T09:33:54.388Z,100490.53
2022-10-24T09:36:25.007Z,100498.06
2022-10-24T09:38:52.246Z,100502.38
2022-10-24T09:41:23.994Z,100496.19
2022-10-24T09:43:59.479Z,100505.63
2022-10-24T09:46:36.430Z,100508.91
2022-10-24T09:49:17.952Z,100506.09
2022-10-24T09:51:59.847Z,100502.34
2022-10-24T09:54:30.103Z,100507.31
2022-10-24T09:57:12.672Z,100512.25
2022-10-24T09:59:44.105Z,100519.09
2022-10-24T10:02:11.194Z,100525.91
2022-10-24T10:04:40.407Z,100531.06
2022-10-24T10:07:26.122Z,100526.50
2022-10-24T10:09:59.363Z,100537.69
2022-10-24T10:12:34.690Z,100529.72
2022-10-24T10:15:16.539Z,100533.25
2022-10-24T10:17:52.271Z,100538.34
2022-10-24T10:20:42.854Z,100552.06
2022-10-24T10:23:22.624Z,100540.88
2022-10-24T10:25:49.580Z,100539.00
2022-10-24T10:28:23.771Z,100530.16
2022-10-24T10:30:55.514Z,100545.78
2022-10-24T10:33:40.012Z,100539.75
2022-10-24T10:36:35.769Z,100549.22
2022-10-24T10:39:02.579Z,100552.63
2022-10-24T10:41:44.221Z,100545.69
2022-10-24T10:44:26.196Z,100556.09
2022-10-24T10:47:22.637Z,100563.06
2022-10-24T10:49:57.779Z,100563.06
2022-10-24T10:52:32.377Z,100561.22
2022-10-24T10:55:05.226Z,100569.00
2022-10-24T10:57:45.938Z,100563.91
2022-10-24T11:00:48.163Z,100580.25
2022-10-24T11:03:21.074Z,100578.41
2022-10-24T11:06:18.365Z,100583.56
2022-10-24T11:09:11.652Z,100581.84
2022-10-24T11:11:43.098Z,100585.34
2022-10-24T11:14:28.662Z,100572.13
2022-10-24T11:17:04.530Z,100580.84
2022-10-24T11:19:45.990Z,100591.16
2022-10-24T11:22:20.440Z,100597.22
2022-10-24T11:25:12.446Z,100597.22
2022-10-24T11:27:45.077Z,100593.78
2022-10-24T11:30:17.753Z,100596.31
2022-10-24T11:33:02.180Z,100604.94
2022-10-24T11:35:34.641Z,100604.09
2022-10-24T11:38:16.222Z,100597.94
2022-10-24T11:40:46.169Z,100586.78
2022-10-24T11:43:21.080Z,100593.63
2022-10-24T11:46:12.725Z,100601.41
2022-10-24T11:49:12.932Z,100602.09
2022-10-24T11:51:46.648Z,100603.88
2022-10-24T11:54:23.634Z,100605.63
2022-10-24T11:56:56.366Z,100607.31
2022-10-24T11:59:24.239Z,100612.53
2022-10-24T12:01:57.096Z,100604.72
2022-10-24T12:04:56.977Z,100613.56
2022-10-24T12:07:51.547Z,100617.06
2022-10-24T12:10:56.966Z,100614.44
2022-10-24T12:13:59.726Z,100612.63
2022-10-24T12:16:48.793Z,100607.47
2022-10-24T12:19:19.622Z,100611.00
2022-10-24T12:21:56.871Z,100609.22
2022-10-24T12:24:31.377Z,100596.16
2022-10-24T12:27:35.616Z,100606.47
2022-10-24T12:30:27.277Z,100603.81
2022-10-24T12:33:10.753Z,100602.03
2022-10-24T12:35:40.743Z,100604.38
2022-10-24T12:38:18.704Z,100605.94
2022-10-24T12:40:46.043Z,100604.09
2022-10-24T12:43:15.707Z,100597.03
2022-10-24T12:45:42.739Z,100612.56
2022-10-24T12:48:30.702Z,100612.41
2022-10-24T12:51:03.715Z,100615.81
2022-10-24T12:53:37.226Z,100604.59
2022-10-24T12:56:11.196Z,100603.41
2022-10-24T12:58:42.706Z,100600.69
2022-10-24T13:01:33.490Z,100597.09
2022-10-24T13:04:18.722Z,100590.81
2022-10-24T13:06:57.803Z,100599.38
2022-10-24T13:09:46.219Z,100596.53
2022-10-24T13:12:44.102Z,100581.69
2022-10-24T13:15:44.175Z,100585.00
2022-10-24T13:18:20.137Z,100580.69
2022-10-24T13:20:51.909Z,100583.19
2022-10-24T13:23:27.626Z,100576.25
2022-10-24T13:25:57.270Z,100575.97
2022-10-24T13:28:24.164Z,100577.59
2022-10-24T13:31:17.056Z,100579.13
2022-10-24T13:33:46.469Z,100570.34
2022-10-24T13:36:28.601Z,100574.69
2022-10-24T13:38:59.273Z,100580.63
2022-10-24T13:41:57.281Z,100573.50
2022-10-24T13:44:45.185Z,100577.91
2022-10-24T13:47:36.190Z,100577.91
2022-10-24T13:50:17.087Z,100584.13
2022-10-24T13:52:50.207Z,100588.31
2022-10-24T13:55:42.436Z,100584.91
2022-10-24T13:58:12.273Z,100592.66
2022-10-24T14:00:46.289Z,100586.53
2022-10-24T14:03:18.849Z,100594.28
2022-10-24T14:05:49.291Z,100589.00
2022-10-24T14:08:31.492Z,100587.25
2022-10-24T14:11:02.028Z,100589.78
2022-10-24T14:13:31.987Z,100587.13
2022-10-24T14:16:02.626Z,100591.50
2022-10-24T14:18:30.161Z,100584.50
2022-10-24T14:21:02.978Z,100588.94
2022-10-24T14:23:39.185Z,100602.66
2022-10-24T14:26:15.346Z,100600.91
2022-10-24T14:28:58.817Z,100610.50
2022-10-24T14:31:35.023Z,100605.28
2022-10-24T14:34:06.027Z,100604.44
2022-10-24T14:36:37.800Z,100599.22
2022-10-24T14:39:05.588Z,100599.13
2022-10-24T14:41:44.199Z,100605.34
2022-10-24T14:44:15.779Z,100608.84
2022-10-24T14:46:44.793Z,100614.81
2022-10-24T14:49:33.839Z,100613.13
2022-10-24T14:52:12.817Z,100606.38
2022-10-24T14:54:43.238Z,100619.22
2022-10-24T14:57:21.881Z,100611.50
2022-10-24T14:59:51.662Z,100618.38
2022-10-24T15:02:36.543Z,100612.44
2022-10-24T15:05:29.828Z,100622.81
2022-10-24T15:08:21.111Z,100618.41
2022-10-24T15:10:50.117Z,100621.03
2022-10-24T15:13:24.809Z,100623.75
2022-10-24T15:15:59.693Z,100627.19
2022-10-24T15:18:32.162Z,100638.50
2022-10-24T15:21:07.529Z,100628.88
2022-10-24T15:23:38.277Z,100622.06
2022-10-24T15:26:11.643Z,100628.13
2022-10-24T15:28:44.499Z,100624.00
2022-10-24T15:31:13.678Z,100632.53
2022-10-24T15:36:33.504Z,100635.13
2022-10-24T15:39:12.941Z,100631.66
2022-10-24T15:41:40.821Z,100638.66
2022-10-24T15:44:29.857Z,100651.78
2022-10-24T15:46:57.343Z,100664.94
2022-10-24T15:49:24.351Z,100665.78
2022-10-24T15:51:51.661Z,100678.00
2022-10-24T15:54:20.828Z,100683.25
2022-10-24T15:56:48.081Z,100688.56
2022-10-24T15:59:15.068Z,100679.91
2022-10-24T16:01:53.922Z,100690.38
2022-10-24T16:04:21.933Z,100680.91
2022-10-24T16:06:50.182Z,100683.75
2022-10-24T16:09:23.371Z,100699.50
2022-10-24T16:11:50.481Z,100684.09
2022-10-24T16:14:21.343Z,100684.81
2022-10-24T16:16:48.298Z,100684.81
2022-10-24T16:19:15.262Z,100684.31
2022-10-24T16:21:42.434Z,100690.34
2022-10-24T16:24:10.441Z,100693.16
2022-10-24T16:26:38.004Z,100693.44
2022-10-24T16:29:05.681Z,100698.78
2022-10-24T16:31:32.738Z,100705.78
2022-10-24T16:33:59.823Z,100700.84
2022-10-24T16:36:27.413Z,100697.66
2022-10-24T16:38:54.413Z,100690.84
2022-10-24T16:41:24.644Z,100707.41
2022-10-24T16:43:56.020Z,100704.00
2022-10-24T16:46:24.903Z,100708.50
2022-10-24T16:48:51.971Z,100712.09
2022-10-24T16:51:25.622Z,100708.84
2022-10-24T16:53:52.556Z,100705.59
2022-10-24T16:56:19.514Z,100710.88
2022-10-24T16:58:46.532Z,100717.06
2022-10-24T17:01:16.067Z,100715.50
2022-10-24T17:03:47.438Z,100719.22
2022-10-24T17:06:15.193Z,100756.72
2022-10-24T17:08:42.144Z,100755.91
2022-10-24T17:11:32.106Z,100760.41
2022-10-24T17:13:58.485Z,100765.59
2022-10-24T17:16:25.697Z,100740.69
2022-10-24T17:19:12.282Z,100740.09
2022-10-24T17:21:42.922Z,100741.13
2022-10-24T17:24:11.784Z,100734.47
2022-10-24T17:26:39.535Z,100761.50
2022-10-24T17:29:08.449Z,100772.91
2022-10-24T17:31:35.627Z,100793.06
2022-10-24T17:34:02.869Z,100794.03
2022-10-24T17:36:34.809Z,100765.44
2022-10-24T17:39:20.487Z,100759.44
2022-10-24T17:41:47.542Z,100751.78
2022-10-24T17:44:17.587Z,100747.41
2022-10-24T17:46:45.444Z,100753.69
2022-10-24T17:49:16.549Z,100766.78
2022-10-24T17:51:47.243Z,100769.63
2022-10-24T17:54:14.985Z,100771.31
2022-10-24T17:56:42.462Z,100760.28
2022-10-24T17:59:09.629Z,100766.34
2022-10-24T18:01:36.681Z,100770.84
2022-10-24T18:04:04.207Z,100773.44
2022-10-24T18:06:31.166Z,100775.31
2022-10-24T18:08:58.076Z,100765.91
2022-10-24T18:11:24.916Z,100782.47
2022-10-24T18:13:51.906Z,100782.66
2022-10-24T18:16:19.229Z,100784.53
2022-10-24T18:18:46.968Z,100765.47
2022-10-24T18:21:20.260Z,100763.81
2022-10-24T18:23:47.615Z,100791.69
2022-10-24T18:26:17.970Z,100788.25
2022-10-24T18:28:46.974Z,100793.63
2022-10-24T18:31:22.993Z,100781.63
2022-10-24T18:33:50.160Z,100785.09
2022-10-24T18:36:23.282Z,100783.50
2022-10-24T18:38:50.684Z,100781.78
2022-10-24T18:41:48.627Z,100787.91
2022-10-24T18:44:26.825Z,100786.44
2022-10-24T18:46:56.619Z,100799.50
2022-10-24T18:49:23.996Z,100797.94
2022-10-24T18:52:30.423Z,100796.22
2022-10-24T18:55:08.651Z,100799.94
2022-10-24T18:57:36.587Z,100798.31
2022-10-24T19:00:05.517Z,100803.66
2022-10-24T19:02:59.313Z,100796.03
2022-10-24T19:05:42.457Z,100800.53
2022-10-24T19:08:18.642Z,100792.75
2022-10-24T19:10:46.170Z,100788.66
2022-10-24T19:13:13.395Z,100792.97
2022-10-24T19:15:45.208Z,100797.28
2022-10-24T19:18:15.516Z,100789.56
2022-10-24T19:20:42.818Z,100787.91
2022-10-24T19:23:14.458Z,100789.66
2022-10-24T19:25:41.555Z,100789.63
2022-10-24T19:28:11.579Z,100790.59
2022-10-24T19:30:42.200Z,100786.16
2022-10-24T19:33:09.402Z,100782.88
2022-10-24T19:35:37.851Z,100788.03
2022-10-24T19:38:04.862Z,100779.47
2022-10-24T19:40:31.902Z,100789.03
2022-10-24T19:42:58.884Z,100778.63
2022-10-24T19:45:25.862Z,100792.38
2022-10-24T19:47:56.117Z,100795.00
2022-10-24T19:50:22.967Z,100797.69
2022-10-24T19:52:49.994Z,100802.06
2022-10-24T19:55:16.922Z,100802.06
2022-10-24T19:57:44.003Z,100807.22
2022-10-24T20:00:11.641Z,100828.97
2022-10-24T20:02:38.522Z,100820.44
2022-10-24T20:05:05.771Z,100849.09
2022-10-24T20:07:33.621Z,100857.84
2022-10-24T20:10:00.561Z,100857.03
2022-10-24T20:12:27.509Z,100852.63
2022-10-24T20:14:54.378Z,100862.25
2022-10-24T20:17:21.182Z,100859.63
2022-10-24T20:19:48.082Z,100848.53
2022-10-24T20:22:14.903Z,100839.88
2022-10-24T20:24:41.799Z,100859.84
2022-10-24T20:27:08.636Z,100856.56
2022-10-24T20:29:36.674Z,100868.53
2022-10-24T20:32:03.696Z,100865.06
2022-10-24T20:34:30.812Z,100858.16
2022-10-24T20:36:57.717Z,100868.56
2022-10-24T20:39:26.285Z,100881.59
2022-10-24T20:41:56.003Z,100882.44
2022-10-24T20:44:23.204Z,100874.69
2022-10-24T20:46:57.806Z,100895.53
2022-10-24T20:49:27.386Z,100886.00
2022-10-24T20:52:00.353Z,100894.69
2022-10-24T20:54:27.306Z,100890.47
2022-10-24T20:56:54.203Z,100883.63
2022-10-24T20:59:21.074Z,100895.72
2022-10-24T21:01:48.092Z,100900.09
2022-10-24T21:04:17.107Z,100900.94
2022-10-24T21:06:47.486Z,100906.16
2022-10-24T21:09:15.285Z,100898.41
2022-10-24T21:11:42.339Z,100900.25
2022-10-24T21:14:12.471Z,100916.66
2022-10-24T21:16:39.528Z,100908.09
2022-10-24T21:19:06.383Z,100915.03
2022-10-24T21:21:33.359Z,100914.13
2022-10-24T21:24:04.301Z,100911.66
2022-10-24T21:26:39.959Z,100913.31
2022-10-24T21:29:32.255Z,100910.81
2022-10-24T21:32:02.280Z,100909.94
2022-10-24T21:34:34.510Z,100913.38
2022-10-24T21:37:02.924Z,100911.75
2022-10-24T21:39:29.962Z,100910.03
2022-10-24T21:41:56.953Z,100917.06
2022-10-24T21:44:23.860Z,100914.44
2022-10-24T21:46:54.473Z,100909.25
2022-10-24T21:49:21.525Z,100918.81
2022-10-24T21:51:49.313Z,100913.69
2022-10-24T21:54:19.605Z,100917.13
2022-10-24T21:56:46.549Z,100906.88
2022-10-24T21:59:30.433Z,100918.16
2022-10-24T22:02:03.559Z,100928.53
2022-10-24T22:04:30.848Z,100933.78
2022-10-24T22:06:59.131Z,100924.38
2022-10-24T22:09:33.234Z,100931.41
2022-10-24T22:12:01.689Z,100941.69
2022-10-24T22:14:29.744Z,100940.06
2022-10-24T22:17:02.022Z,100943.44
2022-10-24T22:19:32.195Z,100940.84
2022-10-24T22:22:04.924Z,100941.84
2022-10-24T22:24:31.851Z,100944.38
2022-10-24T22:27:00.125Z,100936.66
2022-10-24T22:29:37.818Z,100936.81
2022-10-24T22:32:07.990Z,100943.63
2022-10-24T22:34:35.225Z,100941.94
2022-10-24T22:37:06.124Z,100935.91
2022-10-24T22:39:34.964Z,100945.50
2022-10-24T22:42:02.721Z,100944.66
2022-10-24T22:44:35.958Z,100961.03
2022-10-24T22:47:08.844Z,100959.34
2022-10-24T22:50:04.436Z,100958.56
2022-10-24T22:52:35.147Z,100964.63
2022-10-24T22:55:12.499Z,100956.22
2022-10-24T22:57:42.074Z,100969.16
2022-10-24T23:00:19.379Z,100980.38
2022-10-24T23:03:12.722Z,100979.53
2022-10-24T23:06:17.500Z,100972.78
2022-10-24T23:08:45.404Z,100986.53
2022-10-24T23:11:14.793Z,100983.06
2022-10-24T23:13:45.476Z,100987.47
2022-10-24T23:16:35.739Z,100991.75
2022-10-24T23:19:25.453Z,100983.19
2022-10-24T23:22:11.567Z,100991.00
2022-10-24T23:24:40.082Z,100996.97
2022-10-24T23:27:36.171Z,101006.53
2022-10-24T23:30:25.159Z,100991.94
2022-10-24T23:32:53.642Z,101007.63
2022-10-24T23:35:26.757Z,101005.03
2022-10-24T23:37:54.584Z,101000.84
2022-10-24T23:40:38.485Z,101026.59
2022-10-24T23:43:13.348Z,101016.31
2022-10-24T23:46:06.826Z,101017.19
2022-10-24T23:49:08.634Z,101029.28
2022-10-24T23:52:20.345Z,101030.19
2022-10-24T23:54:54.993Z,101031.13
2022-10-24T23:57:26.333Z,101028.53
2022-10-24T23:59:56.015Z,101029.41
